createdAt,value
2018-11-21T00:00:00.125Z,99406.56
2018-11-21T00:02:34.946Z,99412.03
2018-11-21T00:05:10.166Z,99409.77
2018-11-21T00:07:42.980Z,99409.61
2018-11-21T00:10:17.492Z,99414.97
2018-11-21T00:12:53.652Z,99424.36
2018-11-21T00:15:26.832Z,99427.49
2018-11-21T00:17:59.667Z,99434.23
2018-11-21T00:20:32.995Z,99438.19
2018-11-21T00:23:06.037Z,99441.95
2018-11-21T00:25:39.408Z,99439.85
2018-11-21T00:28:12.156Z,99446.67
2018-11-21T00:30:45.335Z,99451.19
2018-11-21T00:33:18.624Z,99445.82
2018-11-21T00:35:53.698Z,99448.89
2018-11-21T00:38:26.953Z,99447.78
2018-11-21T00:41:00.816Z,99450.65
2018-11-21T00:43:34.502Z,99444.02
2018-11-21T00:46:07.905Z,99445.05
2018-11-21T00:48:42.272Z,99454.38
2018-11-21T00:51:15.201Z,99455.98
2018-11-21T00:53:48.523Z,99451.36
2018-11-21T00:56:21.996Z,99461.07
2018-11-21T00:58:54.752Z,99466.08
2018-11-21T01:01:29.245Z,99470.66
2018-11-21T01:04:02.539Z,99469.88
2018-11-21T01:06:36.398Z,99472.31
2018-11-21T01:09:12.997Z,99476.00
2018-11-21T01:11:46.569Z,99484.28
2018-11-21T01:14:19.434Z,99497.44
2018-11-21T01:16:52.246Z,99499.72
2018-11-21T01:19:25.346Z,99497.73
2018-11-21T01:21:58.817Z,99497.92
2018-11-21T01:24:31.927Z,99495.32
2018-11-21T01:27:04.819Z,99491.25
2018-11-21T01:29:38.608Z,99495.64
2018-11-21T01:32:11.834Z,99503.31
2018-11-21T01:34:44.546Z,99509.94
2018-11-21T01:37:17.957Z,99513.67
2018-11-21T01:39:50.696Z,99507.58
2018-11-21T01:42:24.176Z,99504.16
2018-11-21T01:44:57.531Z,99503.54
2018-11-21T01:47:30.326Z,99502.09
2018-11-21T01:50:03.097Z,99507.50
2018-11-21T01:52:36.562Z,99530.06
2018-11-21T01:55:09.549Z,99531.38
2018-11-21T01:57:43.059Z,99531.16
2018-11-21T02:00:19.206Z,99535.13
2018-11-21T02:02:52.692Z,99538.68
2018-11-21T02:05:25.536Z,99538.78
2018-11-21T02:07:58.945Z,99545.97
2018-11-21T02:10:32.069Z,99545.81
2018-11-21T02:13:05.089Z,99539.73
2018-11-21T02:15:38.532Z,99536.45
2018-11-21T02:18:11.469Z,99534.48
2018-11-21T02:20:44.278Z,99540.95
2018-11-21T02:23:17.677Z,99549.41
2018-11-21T02:25:50.461Z,99557.34
2018-11-21T02:28:24.437Z,99559.76
2018-11-21T02:30:58.926Z,99560.89
2018-11-21T02:33:33.046Z,99558.01
2018-11-21T02:36:06.642Z,99559.58
2018-11-21T02:38:40.094Z,99552.97
2018-11-21T02:41:12.890Z,99550.17
2018-11-21T02:43:46.693Z,99559.03
2018-11-21T02:46:20.195Z,99557.50
2018-11-21T02:48:53.352Z,99562.22
2018-11-21T02:51:26.273Z,99564.28
2018-11-21T02:54:00.044Z,99569.93
2018-11-21T02:56:55.197Z,99567.74
2018-11-21T02:59:28.158Z,99576.13
2018-11-21T03:02:01.604Z,99582.73
2018-11-21T03:04:34.663Z,99581.92
2018-11-21T03:07:07.787Z,99591.03
2018-11-21T03:09:42.134Z,99599.02
2018-11-21T03:12:15.366Z,99598.92
2018-11-21T03:14:48.713Z,99607.56
2018-11-21T03:17:23.081Z,99628.59
2018-11-21T03:19:55.941Z,99633.96
2018-11-21T03:22:28.691Z,99630.90
2018-11-21T03:25:03.076Z,99630.18
2018-11-21T03:27:35.944Z,99631.14
2018-11-21T03:30:12.337Z,99632.19
2018-11-21T03:32:45.606Z,99634.56
2018-11-21T03:35:18.502Z,99634.98
2018-11-21T03:37:51.317Z,99639.69
2018-11-21T03:40:24.117Z,99649.64
2018-11-21T03:42:57.759Z,99641.78
2018-11-21T03:45:30.802Z,99641.94
2018-11-21T03:48:03.779Z,99646.93
2018-11-21T03:50:37.070Z,99646.19
2018-11-21T03:53:10.160Z,99653.45
2018-11-21T03:55:43.058Z,99647.92
2018-11-21T03:58:16.211Z,99655.17
2018-11-21T04:00:49.472Z,99661.78
2018-11-21T04:03:22.208Z,99655.91
2018-11-21T04:05:56.709Z,99657.87
2018-11-21T04:08:29.441Z,99649.41
2018-11-21T04:11:02.253Z,99649.93
2018-11-21T04:13:35.684Z,99655.64
2018-11-21T04:16:08.692Z,99647.33
2018-11-21T04:18:41.574Z,99644.55
2018-11-21T04:21:14.955Z,99639.89
2018-11-21T04:23:47.757Z,99645.01
2018-11-21T04:26:20.648Z,99649.00
2018-11-21T04:28:53.954Z,99641.78
2018-11-21T04:31:26.766Z,99638.77
2018-11-21T04:33:59.763Z,99650.70
2018-11-21T04:36:33.142Z,99660.60
2018-11-21T04:41:44.261Z,99679.16
2018-11-21T04:44:18.915Z,99682.63
2018-11-21T04:46:52.945Z,99677.61
2018-11-21T04:49:25.822Z,99693.99
2018-11-21T04:51:59.744Z,99699.33
2018-11-21T04:54:32.621Z,99708.25
2018-11-21T04:57:05.558Z,99711.36
2018-11-21T04:59:38.733Z,99713.52
2018-11-21T05:02:11.541Z,99714.16
2018-11-21T05:04:44.417Z,99717.25
2018-11-21T05:07:21.280Z,99721.19
2018-11-21T05:09:54.656Z,99726.06
2018-11-21T05:12:27.416Z,99730.54
2018-11-21T05:15:00.183Z,99729.62
2018-11-21T05:17:36.662Z,99738.23
2018-11-21T05:20:09.595Z,99743.18
2018-11-21T05:22:43.456Z,99747.80
2018-11-21T05:25:17.950Z,99761.21
2018-11-21T05:27:50.817Z,99768.73
2018-11-21T05:30:24.398Z,99763.53
2018-11-21T05:32:58.070Z,99778.59
2018-11-21T05:35:31.423Z,99773.06
2018-11-21T05:38:05.941Z,99771.03
2018-11-21T05:40:39.100Z,99770.34
2018-11-21T05:43:13.998Z,99775.09
2018-11-21T05:45:48.445Z,99777.88
2018-11-21T05:48:21.786Z,99778.29
2018-11-21T05:50:55.416Z,99779.80
2018-11-21T05:53:28.369Z,99780.53
2018-11-21T05:56:02.361Z,99787.47
2018-11-21T05:58:35.341Z,99788.41
2018-11-21T06:01:09.277Z,99787.56
2018-11-21T06:03:42.349Z,99788.39
2018-11-21T06:06:15.261Z,99799.75
2018-11-21T06:08:48.557Z,99799.69
2018-11-21T06:11:21.664Z,99797.67
2018-11-21T06:13:54.605Z,99811.08
2018-11-21T06:16:27.439Z,99811.52
2018-11-21T06:19:00.292Z,99810.00
2018-11-21T06:21:33.733Z,99814.12
2018-11-21T06:24:06.567Z,99821.61
2018-11-21T06:26:40.708Z,99820.92
2018-11-21T06:29:15.687Z,99824.39
2018-11-21T06:31:49.919Z,99824.77
2018-11-21T06:34:23.691Z,99822.83
2018-11-21T06:36:56.489Z,99831.57
2018-11-21T06:39:30.065Z,99834.63
2018-11-21T06:42:02.949Z,99837.06
2018-11-21T06:44:36.507Z,99845.26
2018-11-21T06:47:12.243Z,99843.61
2018-11-21T06:49:45.747Z,99851.97
2018-11-21T06:52:22.268Z,99855.20
2018-11-21T06:54:53.417Z,99865.30
2018-11-21T06:57:26.381Z,99881.50
2018-11-21T06:59:59.438Z,99877.59
2018-11-21T07:02:32.739Z,99875.73
2018-11-21T07:05:27.999Z,99872.23
2018-11-21T07:08:01.455Z,99863.56
2018-11-21T07:10:36.111Z,99855.72
2018-11-21T07:13:11.186Z,99865.30
2018-11-21T07:15:42.996Z,99871.07
2018-11-21T07:18:26.641Z,99877.52
2018-11-21T07:21:00.461Z,99877.83
2018-11-21T07:23:35.330Z,99888.42
2018-11-21T07:26:09.078Z,99896.03
2018-11-21T07:28:41.923Z,99900.83
2018-11-21T07:31:15.565Z,99901.66
2018-11-21T07:33:48.785Z,99908.20
2018-11-21T07:36:22.304Z,99914.58
2018-11-21T07:38:55.744Z,99916.52
2018-11-21T07:41:29.488Z,99924.45
2018-11-21T07:44:03.125Z,99917.09
2018-11-21T07:46:36.849Z,99924.27
2018-11-21T07:49:10.414Z,99923.67
2018-11-21T07:51:43.768Z,99927.32
2018-11-21T07:54:17.141Z,99925.83
2018-11-21T07:57:33.432Z,99926.69
2018-11-21T08:00:42.949Z,99929.38
2018-11-21T08:03:16.576Z,99932.24
2018-11-21T08:05:54.313Z,99938.45
2018-11-21T08:08:41.626Z,99938.56
2018-11-21T08:11:32.489Z,99936.02
2018-11-21T08:14:12.352Z,99936.16
2018-11-21T08:17:08.193Z,99943.77
2018-11-21T08:20:01.611Z,99947.02
2018-11-21T08:22:45.537Z,99951.77
2018-11-21T08:25:44.036Z,99953.63
2018-11-21T08:28:24.191Z,99960.35
2018-11-21T08:30:57.940Z,99958.56
2018-11-21T08:33:34.139Z,99959.12
2018-11-21T08:36:05.736Z,99963.50
2018-11-21T08:38:39.204Z,99969.98
2018-11-21T08:43:49.369Z,99970.48
2018-11-21T08:46:23.194Z,99971.97
2018-11-21T08:49:00.461Z,99973.20
2018-11-21T08:51:34.688Z,99966.20
2018-11-21T08:54:10.826Z,99969.00
2018-11-21T08:56:46.128Z,99968.44
2018-11-21T08:59:19.153Z,99977.81
2018-11-21T09:01:52.839Z,99978.26
2018-11-21T09:04:26.597Z,99979.01
2018-11-21T09:07:00.266Z,99982.05
2018-11-21T09:09:33.602Z,99983.34
2018-11-21T09:12:09.411Z,99987.56
2018-11-21T09:14:44.757Z,99992.92
2018-11-21T09:17:19.277Z,100000.37
2018-11-21T09:19:54.253Z,100007.58
2018-11-21T09:22:28.268Z,100011.58
2018-11-21T09:25:01.532Z,100015.15
2018-11-21T09:27:41.008Z,100013.91
2018-11-21T09:30:18.483Z,100012.81
2018-11-21T09:32:54.042Z,100011.47
2018-11-21T09:35:29.624Z,100013.16
2018-11-21T09:38:06.455Z,100004.97
2018-11-21T09:40:39.239Z,100017.02
2018-11-21T09:43:15.292Z,100016.82
2018-11-21T09:45:48.578Z,100034.64
2018-11-21T09:48:24.152Z,100036.33
2018-11-21T09:50:57.970Z,100044.92
2018-11-21T09:53:34.012Z,100061.27
2018-11-21T09:56:08.118Z,100058.34
2018-11-21T09:58:43.033Z,100059.33
2018-11-21T10:01:38.667Z,100053.51
2018-11-21T10:04:16.822Z,100048.94
2018-11-21T10:06:49.781Z,100058.45
2018-11-21T10:09:27.250Z,100060.27
2018-11-21T10:12:00.431Z,100058.86
2018-11-21T10:14:33.432Z,100052.48
2018-11-21T10:17:10.081Z,100054.76
2018-11-21T10:19:43.991Z,100055.67
2018-11-21T10:22:17.531Z,100060.13
2018-11-21T10:24:50.931Z,100065.66
2018-11-21T10:27:23.942Z,100067.63
2018-11-21T10:29:58.297Z,100065.97
2018-11-21T10:32:33.444Z,100061.66
2018-11-21T10:35:11.740Z,100061.96
2018-11-21T10:37:44.227Z,100058.81
2018-11-21T10:40:17.624Z,100052.16
2018-11-21T10:42:51.857Z,100052.03
2018-11-21T10:45:25.740Z,100056.36
2018-11-21T10:47:59.455Z,100055.17
2018-11-21T10:50:32.722Z,100051.69
2018-11-21T10:53:06.273Z,100048.06
2018-11-21T10:55:39.698Z,100036.97
2018-11-21T10:58:15.520Z,100033.83
2018-11-21T11:00:55.820Z,100037.41
2018-11-21T11:03:31.788Z,100035.42
2018-11-21T11:06:19.150Z,100032.79
2018-11-21T11:09:17.431Z,100026.23
2018-11-21T11:12:12.191Z,100025.69
2018-11-21T11:14:51.388Z,100024.96
2018-11-21T11:17:44.532Z,100035.72
2018-11-21T11:20:32.767Z,100030.20
2018-11-21T11:23:16.457Z,100033.63
2018-11-21T11:26:11.819Z,100042.24
2018-11-21T11:28:53.429Z,100047.93
2018-11-21T11:31:49.537Z,100049.52
2018-11-21T11:34:28.998Z,100048.05
2018-11-21T11:37:06.968Z,100045.29
2018-11-21T11:40:00.656Z,100044.63
2018-11-21T11:42:56.783Z,100050.07
2018-11-21T11:45:35.353Z,100047.16
2018-11-21T11:48:21.704Z,100047.98
2018-11-21T11:51:02.587Z,100046.70
2018-11-21T11:53:55.630Z,100049.20
2018-11-21T11:56:41.990Z,100046.28
2018-11-21T11:59:27.003Z,100050.22
2018-11-21T12:02:22.578Z,100044.17
2018-11-21T12:05:22.332Z,100055.81
2018-11-21T12:08:19.076Z,100042.18
2018-11-21T12:11:12.749Z,100044.61
2018-11-21T12:13:51.945Z,100047.88
2018-11-21T12:16:48.325Z,100045.52
2018-11-21T12:19:56.022Z,100048.92
2018-11-21T12:22:54.610Z,100052.53
2018-11-21T12:25:49.158Z,100049.08
2018-11-21T12:28:43.232Z,100047.29
2018-11-21T12:31:21.690Z,100039.93
2018-11-21T12:34:00.056Z,100038.88
2018-11-21T12:36:52.870Z,100034.95
2018-11-21T12:40:04.556Z,100040.11
2018-11-21T12:42:42.947Z,100042.91
2018-11-21T12:45:39.207Z,100038.38
2018-11-21T12:48:41.898Z,100028.04
2018-11-21T12:51:32.384Z,100029.14
2018-11-21T12:54:12.003Z,100036.42
2018-11-21T12:56:51.633Z,100042.38
2018-11-21T12:59:42.677Z,100038.02
2018-11-21T13:02:38.360Z,100032.63
2018-11-21T13:05:35.876Z,100034.50
2018-11-21T13:08:31.385Z,100044.50
2018-11-21T13:11:39.180Z,100054.63
2018-11-21T13:14:29.369Z,100055.44
2018-11-21T13:17:08.256Z,100047.80
2018-11-21T13:20:01.152Z,100042.77
2018-11-21T13:22:42.024Z,100040.75
2018-11-21T13:25:22.457Z,100046.27
2018-11-21T13:28:10.698Z,100054.08
2018-11-21T13:31:01.402Z,100056.55
2018-11-21T13:33:40.216Z,100054.92
2018-11-21T13:36:19.275Z,100056.74
2018-11-21T13:38:59.141Z,100053.74
2018-11-21T13:41:39.456Z,100047.30
2018-11-21T13:44:21.839Z,100048.52
2018-11-21T13:47:10.044Z,100047.02
2018-11-21T13:50:03.158Z,100049.89
2018-11-21T13:53:01.719Z,100058.70
2018-11-21T13:55:36.920Z,100072.62
2018-11-21T13:58:11.601Z,100064.66
2018-11-21T14:00:46.916Z,100067.84
2018-11-21T14:03:21.929Z,100078.28
2018-11-21T14:05:55.696Z,100078.23
2018-11-21T14:08:28.668Z,100077.41
2018-11-21T14:11:04.183Z,100064.59
2018-11-21T14:13:40.708Z,100070.91
2018-11-21T14:16:14.961Z,100067.13
2018-11-21T14:18:51.344Z,100069.28
2018-11-21T14:21:28.122Z,100077.55
2018-11-21T14:24:01.148Z,100087.80
2018-11-21T14:26:43.765Z,100086.13
2018-11-21T14:29:21.700Z,100084.85
2018-11-21T14:31:59.335Z,100077.64
2018-11-21T14:34:37.971Z,100080.83
2018-11-21T14:37:19.330Z,100087.28
2018-11-21T14:39:55.295Z,100092.25
2018-11-21T14:42:29.752Z,100093.11
2018-11-21T14:45:08.730Z,100094.60
2018-11-21T14:47:47.827Z,100100.25
2018-11-21T14:50:28.672Z,100107.34
2018-11-21T14:53:03.475Z,100119.14
2018-11-21T14:55:38.960Z,100121.61
2018-11-21T14:58:16.992Z,100120.34
2018-11-21T15:00:52.089Z,100122.58
2018-11-21T15:03:28.896Z,100119.70
2018-11-21T15:06:03.113Z,100117.52
2018-11-21T15:08:37.607Z,100121.05
2018-11-21T15:11:12.847Z,100122.81
2018-11-21T15:13:48.583Z,100128.66
2018-11-21T15:16:23.481Z,100125.31
2018-11-21T15:18:57.190Z,100130.74
2018-11-21T15:21:31.837Z,100137.86
2018-11-21T15:24:06.287Z,100143.34
2018-11-21T15:26:43.093Z,100141.22
2018-11-21T15:29:20.617Z,100142.05
2018-11-21T15:31:58.039Z,100146.23
2018-11-21T15:34:35.773Z,100145.78
2018-11-21T15:37:09.907Z,100145.98
2018-11-21T15:39:43.674Z,100142.88
2018-11-21T15:42:17.711Z,100141.93
2018-11-21T15:44:52.303Z,100140.80
2018-11-21T15:47:26.690Z,100134.28
2018-11-21T15:50:05.275Z,100138.13
2018-11-21T15:52:40.973Z,100148.46
2018-11-21T15:55:16.254Z,100149.55
2018-11-21T15:57:50.667Z,100152.26
2018-11-21T16:00:29.827Z,100152.83
2018-11-21T16:03:06.790Z,100157.77
2018-11-21T16:05:40.361Z,100161.13
2018-11-21T16:08:16.416Z,100165.19
2018-11-21T16:10:56.534Z,100169.77
2018-11-21T16:13:30.247Z,100168.48
2018-11-21T16:16:05.451Z,100175.79
2018-11-21T16:18:42.784Z,100175.00
2018-11-21T16:21:17.335Z,100186.34
2018-11-21T16:23:52.193Z,100190.23
2018-11-21T16:26:28.015Z,100191.25
2018-11-21T16:29:06.919Z,100189.67
2018-11-21T16:31:43.631Z,100194.47
2018-11-21T16:34:38.441Z,100200.04
2018-11-21T16:37:17.656Z,100202.86
2018-11-21T16:39:51.435Z,100198.20
2018-11-21T16:42:27.197Z,100199.97
2018-11-21T16:45:05.094Z,100194.02
2018-11-21T16:47:38.680Z,100198.34
2018-11-21T16:50:16.968Z,100207.53
2018-11-21T16:52:52.417Z,100209.25
2018-11-21T16:55:27.269Z,100212.77
2018-11-21T16:58:04.337Z,100214.77
2018-11-21T17:00:38.841Z,100219.16
2018-11-21T17:03:19.273Z,100224.16
2018-11-21T17:05:53.180Z,100222.36
2018-11-21T17:08:29.213Z,100228.10
2018-11-21T17:11:03.262Z,100225.27
2018-11-21T17:13:42.993Z,100223.58
2018-11-21T17:16:16.409Z,100225.47
2018-11-21T17:18:55.406Z,100229.31
2018-11-21T17:21:30.697Z,100228.16
2018-11-21T17:24:04.983Z,100230.84
2018-11-21T17:26:39.302Z,100234.63
2018-11-21T17:29:12.562Z,100232.96
2018-11-21T17:31:48.291Z,100238.86
2018-11-21T17:34:22.324Z,100239.73
2018-11-21T17:36:56.058Z,100239.79
2018-11-21T17:39:31.219Z,100238.91
2018-11-21T17:42:07.882Z,100242.78
2018-11-21T17:44:41.018Z,100242.35
2018-11-21T17:47:16.987Z,100245.07
2018-11-21T17:49:52.510Z,100241.23
2018-11-21T17:52:27.625Z,100247.59
2018-11-21T17:55:02.340Z,100248.25
2018-11-21T17:57:36.663Z,100251.41
2018-11-21T18:00:20.639Z,100253.05
2018-11-21T18:02:57.788Z,100255.13
2018-11-21T18:05:35.114Z,100256.67
2018-11-21T18:08:09.894Z,100260.48
2018-11-21T18:10:48.017Z,100262.40
2018-11-21T18:13:21.137Z,100257.09
2018-11-21T18:15:55.181Z,100261.31
2018-11-21T18:18:39.129Z,100266.23
2018-11-21T18:21:19.760Z,100271.00
2018-11-21T18:23:47.148Z,100273.94
2018-11-21T18:26:21.374Z,100276.98
2018-11-21T18:28:58.086Z,100282.15
2018-11-21T18:31:32.104Z,100271.74
2018-11-21T18:34:06.200Z,100273.12
2018-11-21T18:36:42.627Z,100282.70
2018-11-21T18:39:16.804Z,100280.53
2018-11-21T18:41:57.986Z,100283.25
2018-11-21T18:44:27.979Z,100286.86
2018-11-21T18:47:05.905Z,100284.70
2018-11-21T18:49:39.544Z,100285.56
2018-11-21T18:52:16.861Z,100293.43
2018-11-21T18:54:52.133Z,100298.44
2018-11-21T18:57:47.412Z,100295.08
2018-11-21T19:00:26.611Z,100303.57
2018-11-21T19:03:02.205Z,100308.47
2018-11-21T19:05:38.854Z,100300.42
2018-11-21T19:08:13.876Z,100299.59
2018-11-21T19:10:51.373Z,100300.02
2018-11-21T19:13:28.394Z,100299.35
2018-11-21T19:16:12.275Z,100295.91
2018-11-21T19:18:48.467Z,100297.31
2018-11-21T19:21:22.593Z,100302.52
2018-11-21T19:23:57.807Z,100303.01
2018-11-21T19:26:34.111Z,100296.17
2018-11-21T19:29:08.807Z,100302.09
2018-11-21T19:31:57.186Z,100306.62
2018-11-21T19:34:30.502Z,100308.27
2018-11-21T19:37:04.703Z,100306.24
2018-11-21T19:39:38.082Z,100304.69
2018-11-21T19:42:12.514Z,100301.01
2018-11-21T19:44:51.765Z,100305.86
2018-11-21T19:47:26.607Z,100306.34
2018-11-21T19:50:08.093Z,100299.22
2018-11-21T19:52:42.790Z,100297.86
2018-11-21T19:55:21.587Z,100300.82
2018-11-21T19:57:55.827Z,100305.20
2018-11-21T20:00:33.723Z,100298.23
2018-11-21T20:03:10.265Z,100304.07
2018-11-21T20:05:49.278Z,100307.34
2018-11-21T20:08:22.805Z,100305.11
2018-11-21T20:10:56.649Z,100314.00
2018-11-21T20:13:32.147Z,100314.14
2018-11-21T20:16:06.876Z,100314.08
2018-11-21T20:18:40.172Z,100311.44
2018-11-21T20:21:14.605Z,100311.33
2018-11-21T20:23:47.793Z,100310.79
2018-11-21T20:26:21.177Z,100309.15
2018-11-21T20:28:58.093Z,100308.02
2018-11-21T20:31:31.586Z,100310.81
2018-11-21T20:34:05.772Z,100313.92
2018-11-21T20:36:40.370Z,100320.23
2018-11-21T20:39:15.976Z,100314.91
2018-11-21T20:41:51.501Z,100312.03
2018-11-21T20:44:25.601Z,100316.66
2018-11-21T20:47:00.476Z,100308.61
2018-11-21T20:49:36.846Z,100309.33
2018-11-21T20:52:12.830Z,100314.85
2018-11-21T20:54:50.345Z,100313.41
2018-11-21T20:57:29.506Z,100313.80
2018-11-21T21:00:07.423Z,100310.68
2018-11-21T21:02:41.516Z,100313.16
2018-11-21T21:05:17.485Z,100309.74
2018-11-21T21:07:55.783Z,100311.75
2018-11-21T21:10:32.341Z,100313.09
2018-11-21T21:13:06.578Z,100314.00
2018-11-21T21:15:40.990Z,100313.45
2018-11-21T21:18:19.621Z,100308.54
2018-11-21T21:20:53.988Z,100313.51
2018-11-21T21:23:28.866Z,100314.13
2018-11-21T21:26:04.645Z,100310.92
2018-11-21T21:28:40.815Z,100305.66
2018-11-21T21:31:16.153Z,100304.92
2018-11-21T21:33:49.911Z,100303.12
2018-11-21T21:36:26.275Z,100306.80
2018-11-21T21:38:59.540Z,100304.30
2018-11-21T21:41:34.435Z,100304.47
2018-11-21T21:44:09.389Z,100307.80
2018-11-21T21:46:42.738Z,100310.47
2018-11-21T21:49:20.124Z,100310.69
2018-11-21T21:51:53.385Z,100309.01
2018-11-21T21:54:39.606Z,100306.38
2018-11-21T21:57:14.557Z,100314.81
2018-11-21T21:59:47.849Z,100312.94
2018-11-21T22:02:24.847Z,100318.04
2018-11-21T22:05:01.158Z,100317.87
2018-11-21T22:07:36.944Z,100327.57
2018-11-21T22:10:14.144Z,100322.05
2018-11-21T22:12:53.110Z,100326.20
2018-11-21T22:15:36.990Z,100336.30
2018-11-21T22:18:15.617Z,100329.77
2018-11-21T22:20:49.387Z,100329.16
2018-11-21T22:23:22.961Z,100320.47
2018-11-21T22:25:59.095Z,100324.03
2018-11-21T22:28:33.968Z,100318.82
2018-11-21T22:31:09.824Z,100325.30
2018-11-21T22:33:48.105Z,100325.95
2018-11-21T22:36:21.721Z,100326.61
2018-11-21T22:38:56.721Z,100322.66
2018-11-21T22:41:31.278Z,100319.26
2018-11-21T22:44:05.278Z,100316.80
2018-11-21T22:46:38.982Z,100318.45
2018-11-21T22:49:12.821Z,100322.94
2018-11-21T22:51:47.718Z,100321.43
2018-11-21T22:54:23.298Z,100324.34
2018-11-21T22:56:56.938Z,100317.32
2018-11-21T22:59:33.002Z,100324.27
2018-11-21T23:02:08.508Z,100325.59
2018-11-21T23:04:42.548Z,100323.08
2018-11-21T23:07:15.532Z,100318.52
2018-11-21T23:09:49.318Z,100325.88
2018-11-21T23:12:24.607Z,100322.80
2018-11-21T23:14:57.312Z,100317.63
2018-11-21T23:17:31.985Z,100320.64
2018-11-21T23:20:11.396Z,100326.13
2018-11-21T23:22:45.521Z,100319.91
2018-11-21T23:25:18.964Z,100321.11
2018-11-21T23:27:52.633Z,100321.32
2018-11-21T23:30:26.833Z,100326.47
2018-11-21T23:33:03.611Z,100326.00
2018-11-21T23:35:37.576Z,100324.28
2018-11-21T23:38:11.286Z,100321.89
2018-11-21T23:40:45.428Z,100320.38
2018-11-21T23:43:18.271Z,100326.23
2018-11-21T23:45:51.473Z,100322.36
2018-11-21T23:48:29.629Z,100327.86
2018-11-21T23:51:04.191Z,100322.84
2018-11-21T23:53:37.617Z,100323.03
2018-11-21T23:56:11.379Z,100321.44
2018-11-21T23:58:44.168Z,100320.02
